Terminal Aerodrome Forecast
Issued by NWS Amarillo, TX

Home | Current Version | Previous Version | Text Only | Print | Product List | Glossary On
Versions: 1 2 3 4 5 6 7 8 9 10 11 12 13 14 15 16 17 18 19
000
FTUS44 KAMA 160952 AAB
TAFGUY
TAF AMD
KGUY 160952Z 1610/1706 33011KT 3SM -SN BR BKN006 OVC020
      TEMPO 1610/1612 2SM -SN OVC006
     FM161600 32016KT 5SM BR OVC007
     FM162000 33016KT P6SM SCT010 OVC025
     FM170200 32010KT P6SM SCT020 OVC060=

USA.gov is the U.S. government's official web portal to all federal, state and local government web resources and services.